createdAt,value
2023-03-06T00:02:22.324Z,1.40
2023-03-06T00:07:24.911Z,1.67
2023-03-06T00:12:27.719Z,1.50
2023-03-06T00:17:29.800Z,1.70
2023-03-06T00:22:32.190Z,1.80
2023-03-06T00:27:34.631Z,1.80
2023-03-06T00:32:36.811Z,1.90
2023-03-06T00:37:39.693Z,1.63
2023-03-06T00:42:41.829Z,1.65
2023-03-06T00:47:44.083Z,1.42
2023-03-06T00:52:46.141Z,1.20
2023-03-06T00:57:48.708Z,1.20
2023-03-06T01:02:50.943Z,1.55
2023-03-06T01:07:53.292Z,1.40
2023-03-06T01:12:55.527Z,1.42
2023-03-06T01:17:57.801Z,1.45
2023-03-06T01:22:59.984Z,2.00
2023-03-06T01:28:03.562Z,1.85
2023-03-06T01:33:05.666Z,1.58
2023-03-06T01:38:08.243Z,1.65
2023-03-06T01:43:32.415Z,1.17
2023-03-06T01:48:34.571Z,1.02
2023-03-06T01:53:37.773Z,1.20
2023-03-06T01:58:43.856Z,1.05
2023-03-06T02:03:47.424Z,1.20
2023-03-06T02:08:51.968Z,1.60
2023-03-06T02:13:54.846Z,1.60
2023-03-06T02:19:00.501Z,1.65
2023-03-06T02:24:22.850Z,1.63
2023-03-06T02:29:27.553Z,2.42
2023-03-06T02:34:37.483Z,1.80
2023-03-06T02:39:44.298Z,1.55
2023-03-06T02:44:46.790Z,1.60
2023-03-06T02:49:48.890Z,1.58
2023-03-06T02:54:51.070Z,1.40
2023-03-06T02:59:53.203Z,1.27
2023-03-06T03:04:55.837Z,1.60
2023-03-06T03:09:58.898Z,1.70
2023-03-06T03:15:01.074Z,1.80
2023-03-06T03:20:06.083Z,1.58
2023-03-06T03:25:08.732Z,2.15
2023-03-06T03:30:12.565Z,2.00
2023-03-06T03:35:15.081Z,1.90
2023-03-06T03:40:17.509Z,2.25
2023-03-06T03:45:20.038Z,2.50
2023-03-06T03:50:22.320Z,1.77
2023-03-06T03:55:24.933Z,2.40
2023-03-06T04:00:27.432Z,2.22
2023-03-06T04:05:40.806Z,2.20
2023-03-06T04:10:44.795Z,2.05
2023-03-06T04:15:51.426Z,2.17
2023-03-06T04:20:55.192Z,4.18
2023-03-06T04:25:58.078Z,1.98
2023-03-06T04:31:00.290Z,1.90
2023-03-06T04:36:02.935Z,2.05
2023-03-06T04:41:08.089Z,2.45
2023-03-06T04:46:11.904Z,2.25
2023-03-06T04:51:14.660Z,2.35
2023-03-06T04:56:16.779Z,2.17
2023-03-06T05:01:18.876Z,2.25
2023-03-06T05:06:21.047Z,1.85
2023-03-06T05:11:23.288Z,1.80
2023-03-06T05:16:25.480Z,2.20
2023-03-06T05:21:27.556Z,2.25
2023-03-06T05:26:29.601Z,2.30
2023-03-06T05:31:31.831Z,2.53
2023-03-06T05:36:33.963Z,2.90
2023-03-06T05:41:36.154Z,2.83
2023-03-06T05:46:38.615Z,2.90
2023-03-06T05:51:40.674Z,2.85
2023-03-06T05:56:43.102Z,27.90
2023-03-06T06:02:00.632Z,4.00
2023-03-06T06:07:02.945Z,3.53
2023-03-06T06:12:05.639Z,4.82
2023-03-06T06:17:07.737Z,4.32
2023-03-06T06:22:10.029Z,4.82
2023-03-06T06:27:12.096Z,4.75
2023-03-06T06:32:14.170Z,4.45
2023-03-06T06:37:16.905Z,4.20
2023-03-06T06:42:31.560Z,4.63
2023-03-06T06:47:41.135Z,5.40
2023-03-06T06:52:43.444Z,3.60
2023-03-06T06:57:45.557Z,4.95
2023-03-06T07:02:51.384Z,5.03
2023-03-06T07:07:53.464Z,5.47
2023-03-06T07:12:56.618Z,5.55
2023-03-06T07:17:58.801Z,5.40
2023-03-06T07:23:00.916Z,6.68
2023-03-06T07:28:03.080Z,4.32
2023-03-06T07:33:05.217Z,4.22
2023-03-06T07:38:07.366Z,4.40
2023-03-06T07:43:19.080Z,4.00
2023-03-06T07:48:31.512Z,3.25
2023-03-06T07:53:34.798Z,2.75
2023-03-06T07:58:39.226Z,2.85
2023-03-06T08:03:42.083Z,2.28
2023-03-06T08:08:46.257Z,2.65
2023-03-06T08:13:49.369Z,2.60
2023-03-06T08:18:51.992Z,2.53
2023-03-06T08:23:54.274Z,3.00
2023-03-06T08:28:58.881Z,2.97
2023-03-06T08:34:04.691Z,2.47
2023-03-06T08:39:07.197Z,3.15
2023-03-06T08:44:10.391Z,2.80
2023-03-06T08:49:13.426Z,3.42
2023-03-06T08:54:15.961Z,4.95
2023-03-06T08:59:18.312Z,3.83
2023-03-06T09:04:20.656Z,4.35
2023-03-06T09:09:23.056Z,3.40
2023-03-06T09:14:25.375Z,2.42
2023-03-06T09:19:27.741Z,2.60
2023-03-06T09:24:30.347Z,3.80
2023-03-06T09:29:33.177Z,2.75
2023-03-06T09:34:36.231Z,2.55
2023-03-06T09:39:38.864Z,3.10
2023-03-06T09:44:45.027Z,3.00
2023-03-06T09:50:18.313Z,3.38
2023-03-06T09:55:30.622Z,3.30
2023-03-06T10:00:51.882Z,3.90
2023-03-06T10:06:04.557Z,4.43
2023-03-06T10:11:10.829Z,4.30
2023-03-06T10:16:27.064Z,4.80
2023-03-06T10:22:07.476Z,5.10
2023-03-06T10:27:45.547Z,3.78
2023-03-06T10:32:52.022Z,4.50
2023-03-06T10:38:02.171Z,4.00
2023-03-06T10:43:12.099Z,4.00
2023-03-06T10:48:20.470Z,4.38
2023-03-06T10:53:31.572Z,3.92
2023-03-06T10:58:33.928Z,3.47
2023-03-06T11:03:37.405Z,2.83
2023-03-06T11:08:42.261Z,3.00
2023-03-06T11:13:44.679Z,3.33
2023-03-06T11:19:34.148Z,2.47
2023-03-06T11:24:43.218Z,2.30
2023-03-06T11:29:49.685Z,2.38
2023-03-06T11:34:56.915Z,2.92
2023-03-06T11:40:11.960Z,2.55
2023-03-06T11:45:24.267Z,2.83
2023-03-06T11:50:40.596Z,2.60
2023-03-06T11:56:10.186Z,2.50
2023-03-06T12:01:48.117Z,2.60
2023-03-06T12:07:02.441Z,2.00
2023-03-06T12:12:27.039Z,2.33
2023-03-06T12:18:00.208Z,2.45
2023-03-06T12:23:44.863Z,2.10
2023-03-06T12:29:16.044Z,1.90
2023-03-06T12:34:18.384Z,2.57
2023-03-06T12:39:52.883Z,8.95
2023-03-06T12:45:10.112Z,1.30
2023-03-06T12:50:34.196Z,1.00
2023-03-06T12:55:44.260Z,0.93
2023-03-06T13:01:09.375Z,1.08
2023-03-06T13:06:27.274Z,0.80
2023-03-06T13:11:41.742Z,1.17
2023-03-06T13:16:44.837Z,0.95
2023-03-06T13:21:56.384Z,0.90
2023-03-06T13:27:00.738Z,1.00
2023-03-06T13:32:03.287Z,0.85
2023-03-06T13:37:17.514Z,1.08
2023-03-06T13:42:32.612Z,0.90
2023-03-06T13:48:15.857Z,1.10
2023-03-06T13:53:25.521Z,0.90
2023-03-06T13:58:46.864Z,0.80
2023-03-06T14:03:52.720Z,1.00
2023-03-06T14:08:55.867Z,0.50
2023-03-06T14:13:59.888Z,0.90
2023-03-06T14:19:03.391Z,0.70
2023-03-06T14:24:06.445Z,1.00
2023-03-06T14:29:23.727Z,1.00
2023-03-06T14:34:30.898Z,1.00
2023-03-06T14:39:45.910Z,0.60
2023-03-06T14:44:59.875Z,1.42
2023-03-06T14:50:34.279Z,0.77
2023-03-06T14:55:36.728Z,0.60
2023-03-06T15:00:44.098Z,0.60
2023-03-06T15:05:47.414Z,1.65
2023-03-06T15:11:02.172Z,0.80
2023-03-06T15:16:13.369Z,1.10
2023-03-06T15:21:19.428Z,1.05
2023-03-06T15:26:31.752Z,1.30
2023-03-06T15:31:42.216Z,0.85
2023-03-06T15:37:25.796Z,0.80
2023-03-06T15:42:28.534Z,0.73
2023-03-06T15:47:30.643Z,0.80
2023-03-06T15:52:32.713Z,0.70
2023-03-06T15:57:34.871Z,1.20
2023-03-06T16:02:37.049Z,0.85
2023-03-06T16:07:39.139Z,19.10
2023-03-06T16:12:44.792Z,3.78
2023-03-06T16:17:47.893Z,3.08
2023-03-06T16:22:50.717Z,1.25
2023-03-06T16:28:01.125Z,0.82
2023-03-06T16:33:03.628Z,0.93
2023-03-06T16:38:05.880Z,1.02
2023-03-06T16:43:09.081Z,1.10
2023-03-06T16:48:16.005Z,1.05
2023-03-06T16:53:18.382Z,1.23
2023-03-06T16:58:20.624Z,1.30
2023-03-06T17:03:22.699Z,3.00
2023-03-06T17:08:24.852Z,5.63
2023-03-06T17:13:27.032Z,3.58
2023-03-06T17:18:30.345Z,1.50
2023-03-06T17:23:32.558Z,1.80
2023-03-06T17:28:36.985Z,1.67
2023-03-06T17:33:39.086Z,1.88
2023-03-06T17:38:41.856Z,1.70
2023-03-06T17:43:43.981Z,2.50
2023-03-06T17:48:46.534Z,3.58
2023-03-06T17:53:49.394Z,2.72
2023-03-06T17:58:51.495Z,2.17
2023-03-06T18:03:54.410Z,3.00
2023-03-06T18:08:56.654Z,2.58
2023-03-06T18:13:59.344Z,2.20
2023-03-06T18:19:01.523Z,2.30
2023-03-06T18:24:03.874Z,2.40
2023-03-06T18:29:06.044Z,4.13
2023-03-06T18:34:18.184Z,4.13
2023-03-06T18:39:22.848Z,2.75
2023-03-06T18:44:24.959Z,3.17
2023-03-06T18:49:27.437Z,5.28
2023-03-06T18:54:29.829Z,2.80
2023-03-06T18:59:32.226Z,3.17
2023-03-06T19:04:36.655Z,3.42
2023-03-06T19:09:38.989Z,3.28
2023-03-06T19:14:41.178Z,2.70
2023-03-06T19:19:43.405Z,2.13
2023-03-06T19:24:46.997Z,1.83
2023-03-06T19:29:49.184Z,2.03
2023-03-06T19:34:51.315Z,2.13
2023-03-06T19:39:54.346Z,1.80
2023-03-06T19:44:57.361Z,1.80
2023-03-06T19:50:00.924Z,1.50
2023-03-06T19:55:03.461Z,2.70
2023-03-06T20:00:06.178Z,1.70
2023-03-06T20:05:14.936Z,1.60
2023-03-06T20:10:17.571Z,1.85
2023-03-06T20:15:22.235Z,1.90
2023-03-06T20:20:24.397Z,2.10
2023-03-06T20:25:26.564Z,2.30
2023-03-06T20:30:37.474Z,3.15
2023-03-06T20:40:44.260Z,5.95
2023-03-06T20:45:56.956Z,7.70
2023-03-06T20:51:14.903Z,5.47
2023-03-06T20:56:19.208Z,7.15
2023-03-06T21:01:25.459Z,8.25
2023-03-06T21:06:28.828Z,8.48
2023-03-06T21:11:31.050Z,9.80
2023-03-06T21:16:33.237Z,9.00
2023-03-06T21:21:35.653Z,10.50
2023-03-06T21:26:37.903Z,10.73
2023-03-06T21:31:41.043Z,9.73
2023-03-06T21:36:44.037Z,10.40
2023-03-06T21:41:46.725Z,11.05
2023-03-06T21:46:48.956Z,10.48
2023-03-06T21:51:51.117Z,11.43
2023-03-06T21:56:53.534Z,13.48
2023-03-06T22:01:55.710Z,10.98
2023-03-06T22:06:57.793Z,12.45
2023-03-06T22:12:00.347Z,14.85
2023-03-06T22:17:02.532Z,17.08
2023-03-06T22:22:05.488Z,15.45
2023-03-06T22:27:07.580Z,17.25
2023-03-06T22:32:09.921Z,17.65
2023-03-06T22:37:12.100Z,18.17
2023-03-06T22:42:14.619Z,19.15
2023-03-06T22:47:16.811Z,19.35
2023-03-06T22:52:19.718Z,19.75
2023-03-06T22:57:21.868Z,19.48
2023-03-06T23:02:23.985Z,17.42
2023-03-06T23:07:26.046Z,20.27
2023-03-06T23:12:35.994Z,20.38
2023-03-06T23:17:57.109Z,19.67
2023-03-06T23:23:17.848Z,18.48
2023-03-06T23:28:19.933Z,18.45
2023-03-06T23:33:22.150Z,20.00
2023-03-06T23:38:24.231Z,17.00
2023-03-06T23:43:27.664Z,21.83
2023-03-06T23:48:30.149Z,20.15
2023-03-06T23:53:32.238Z,21.05
2023-03-06T23:58:34.608Z,20.52
